Latest Weather Observations for Wyndham Airport

IDW60801

Issued at 11:04 pm WST Wednesday 8 July 2020 (issued every 10 minutes, with the page automatically refreshed every 10 minutes)

About weather observations | Map of weather stations | Latest weather observations for WA | Other Formats
Station Details ID: 001006 Name: WYNDHAM AERO Lat: -15.51 Lon: 128.15 Height: 3.8 m
Data from the previous 72 hours. | See also: Recent months at Wyndham Airport
Date/Time
WST
Temp
°C
App
Temp
°C
Dew
Point
°C
Rel
Hum
%
Delta-T
°C
Wind Press
QNH
hPa
Press
MSL
hPa
Rain since
9am
mm
Dir  Spd
km/h
Gust
km/h
Spd
kts
Gust
kts
08/11:00pm 15.0 12.4 -2.0 31 6.9 NE 2 7 1 4 1014.1 1014.1 0.0
08/10:30pm 15.5 13.4 -1.1 32 6.9 CALM 0 0 0 0 1014.1 1014.1 0.0
08/10:00pm 15.6 13.2 -2.8 28 7.3 CALM 0 0 0 0 1014.4 1014.4 0.0
08/09:30pm 16.5 14.3 -1.6 29 7.5 CALM 0 0 0 0 1014.3 1014.3 0.0
08/09:00pm 16.8 13.4 -1.8 28 7.7 NE 6 6 3 3 1014.4 1014.4 0.0
08/08:30pm 17.0 13.3 -2.6 26 8.0 E 7 9 4 5 1014.2 1014.2 0.0
08/08:00pm 21.5 17.7 -0.5 23 9.7 E 9 11 5 6 1014.2 1014.2 0.0
08/07:30pm 21.0 17.6 -0.3 24 9.4 E 7 9 4 5 1014.0 1014.0 0.0
08/07:00pm 22.4 18.9 -1.0 21 10.3 E 7 9 4 5 1013.7 1013.7 0.0
08/06:30pm 23.5 19.6 -1.4 19 11.0 E 9 11 5 6 1013.4 1013.4 0.0
08/06:00pm 24.7 20.0 -2.0 17 11.8 E 13 13 7 7 1013.0 1013.0 0.0
08/05:30pm 24.9 20.2 -1.8 17 11.9 E 13 15 7 8 1012.8 1012.8 0.0
08/05:00pm 27.2 22.0 -2.6 14 13.3 E 15 19 8 10 1012.5 1012.5 0.0
08/04:30pm 29.2 23.2 -3.1 12 14.5 ESE 19 22 10 12 1012.3 1012.3 0.0
08/04:00pm 30.0 23.5 -2.5 12 14.9 E 22 26 12 14 1012.1 1012.1 0.0
08/03:30pm 30.7 24.7 -1.9 12 15.1 E 20 28 11 15 1012.1 1012.1 0.0
08/03:00pm 30.5 24.6 -2.1 12 15.1 ESE 19 28 10 15 1012.1 1012.1 0.0
08/02:30pm 30.9 25.4 -1.8 12 15.2 ESE 17 28 9 15 1012.2 1012.2 0.0
08/02:00pm 30.1 24.6 -2.4 12 14.9 ESE 17 26 9 14 1012.5 1012.5 0.0
08/01:30pm 30.7 24.7 -1.9 12 15.1 SE 20 30 11 16 1012.8 1012.8 0.0
08/01:00pm 30.1 23.8 -1.3 13 14.7 ESE 22 32 12 17 1013.2 1013.2 0.0
08/12:30pm 29.7 23.3 -1.6 13 14.5 E 22 32 12 17 1013.6 1013.6 0.0
08/12:00pm 29.5 22.3 -1.8 13 14.4 E 26 33 14 18 1014.2 1014.2 0.0
08/11:30am 29.2 21.2 -2.0 13 14.3 ESE 30 39 16 21 1014.7 1014.7 0.0
08/11:00am 28.8 20.4 -2.3 13 14.1 E 32 44 17 24 1015.1 1015.1 0.0
08/10:30am 28.3 19.9 -2.7 13 13.9 ESE 32 46 17 25 1015.7 1015.7 0.0
08/10:00am 27.8 19.4 -2.1 14 13.5 E 32 39 17 21 1016.2 1016.2 0.0
08/09:30am 27.0 18.0 -2.7 14 13.2 ESE 35 46 19 25 1016.5 1016.5 0.0
08/09:00am 26.2 17.1 -3.4 14 12.9 ESE 35 46 19 25 1016.6 1016.6 0.0
08/08:30am 25.6 15.7 -3.8 14 12.7 E 39 48 21 26 1016.6 1016.6 0.0
08/08:00am 25.1 17.5 -2.5 16 12.1 ESE 28 39 15 21 1016.6 1016.6 0.0
08/07:30am 23.2 17.8 -1.0 20 10.8 ESE 17 20 9 11 1016.6 1016.6 0.0
08/07:00am 18.5 15.4 0.2 29 8.0 E 6 7 3 4 1016.5 1016.5 0.0
08/06:30am 14.5 11.3 0.7 39 5.9 E 7 9 4 5 1016.4 1016.4 0.0
08/06:00am 13.1 11.3 1.5 45 5.0 CALM 0 0 0 0 1016.1 1016.1 0.0
08/05:30am 14.1 10.3 -0.4 37 6.0 E 9 13 5 7 1015.7 1015.7 0.0
08/05:00am 12.9 8.8 0.0 41 5.3 E 11 13 6 7 1015.5 1015.5 0.0
08/04:30am 12.9 9.7 0.6 43 5.2 E 7 9 4 5 1015.2 1015.2 0.0
08/04:00am 13.9 10.9 0.5 40 5.7 E 6 7 3 4 1015.1 1015.1 0.0
08/03:30am 14.3 11.1 -0.2 37 6.1 E 6 7 3 4 1015.1 1015.1 0.0
08/03:00am 15.4 12.1 0.4 36 6.4 E 7 7 4 4 1015.2 1015.2 0.0
08/02:30am 16.1 12.9 -0.2 33 6.9 E 6 7 3 4 1015.1 1015.1 0.0
08/02:00am 17.2 14.0 0.8 33 7.2 E 7 9 4 5 1015.1 1015.1 0.0
08/01:30am 13.7 10.4 -1.1 36 6.0 E 6 7 3 4 1015.3 1015.3 0.0
08/01:00am 14.1 10.5 0.4 39 5.8 E 9 11 5 6 1015.4 1015.4 0.0
08/12:30am 15.4 12.3 1.2 38 6.2 E 7 9 4 5 1015.4 1015.4 0.0
08/12:00am 14.0 10.9 -0.1 38 5.9 E 6 7 3 4 1015.6 1015.6 0.0
 
Date/Time
WST
Temp
°C
App
Temp
°C
Dew
Point
°C
Rel
Hum
%
Delta-T
°C
Wind Press
QNH
hPa
Press
MSL
hPa
Rain since
9am
mm
Dir  Spd
km/h
Gust
km/h
Spd
kts
Gust
kts
07/11:30pm 15.4 13.1 0.4 36 6.4 E 2 7 1 4 1015.5 1015.5 0.0
07/11:00pm 15.0 12.9 -0.7 34 6.5 CALM 0 0 0 0 1015.5 1015.5 0.0
07/10:30pm 15.4 12.9 -0.8 33 6.7 E 2 6 1 3 1015.5 1015.5 0.0
07/10:00pm 15.9 12.4 -1.6 30 7.2 E 7 7 4 4 1015.5 1015.5 0.0
07/09:30pm 17.9 14.3 -1.9 26 8.2 E 7 9 4 5 1015.5 1015.5 0.0
07/09:00pm 20.6 17.0 0.4 26 9.0 E 9 9 5 5 1015.4 1015.4 0.0
07/08:30pm 20.2 16.7 -1.0 24 9.2 E 7 9 4 5 1015.3 1015.3 0.0
07/08:00pm 22.2 18.6 0.7 24 9.8 E 9 9 5 5 1015.3 1015.3 0.0
07/07:30pm 19.1 15.7 -0.8 26 8.6 E 7 9 4 5 1015.1 1015.1 0.0
07/07:00pm 21.8 18.5 -0.2 23 9.8 E 7 7 4 4 1014.8 1014.8 0.0
07/06:30pm 22.6 18.8 -0.8 21 10.4 ESE 9 11 5 6 1014.6 1014.6 0.0
07/06:00pm 23.9 19.8 -0.4 20 11.0 ESE 11 13 6 7 1014.4 1014.4 0.0
07/05:30pm 23.6 18.5 -2.1 18 11.2 SE 15 17 8 9 1014.1 1014.1 0.0
07/05:00pm 26.3 21.5 -2.4 15 12.8 ESE 13 17 7 9 1014.0 1014.0 0.0
07/04:30pm 28.6 23.4 -2.5 13 14.1 ESE 15 20 8 11 1013.7 1013.7 0.0
07/04:00pm 29.2 23.3 -2.0 13 14.3 ESE 19 28 10 15 1013.6 1013.6 0.0
07/03:30pm 29.8 23.8 -1.5 13 14.5 E 20 33 11 18 1013.7 1013.7 0.0
07/03:00pm 29.8 23.6 -0.5 14 14.3 ESE 22 28 12 15 1013.8 1013.8 0.0
07/02:30pm 29.9 24.2 -0.5 14 14.4 E 19 26 10 14 1013.9 1013.9 0.0
07/02:00pm 29.4 23.1 -0.9 14 14.2 ESE 22 32 12 17 1014.3 1014.3 0.0
07/01:30pm 29.0 23.0 -1.2 14 14.0 ESE 20 33 11 18 1014.7 1014.7 0.0
07/01:00pm 28.8 22.5 -1.3 14 13.9 ESE 22 32 12 17 1015.1 1015.1 0.0
07/12:30pm 28.5 22.5 -1.6 14 13.8 E 20 28 11 15 1015.8 1015.8 0.0
07/12:00pm 27.7 21.4 -1.3 15 13.3 E 22 33 12 18 1016.4 1016.4 0.0
07/11:30am 27.1 20.3 -1.7 15 13.0 E 24 33 13 18 1017.0 1017.0 0.0
07/11:00am 27.1 20.7 -1.7 15 13.0 E 22 32 12 17 1017.7 1017.7 0.0
07/10:30am 26.6 20.5 -2.1 15 12.9 ESE 20 30 11 16 1018.2 1018.2 0.0
07/10:00am 25.8 18.5 -2.8 15 12.5 ESE 26 33 14 18 1018.5 1018.5 0.0
07/09:30am 25.6 17.9 -2.9 15 12.5 ESE 28 35 15 19 1018.8 1018.8 0.0
07/09:00am 24.7 16.9 -3.6 15 12.1 ESE 28 37 15 20 1019.0 1019.0 0.0
07/08:30am 24.2 16.5 -3.2 16 11.8 ESE 28 35 15 19 1018.9 1018.9 0.0
07/08:00am 23.0 16.9 -2.6 18 11.0 ESE 20 26 11 14 1019.1 1019.1 0.0
07/07:30am 21.4 17.5 -1.8 21 10.0 ESE 9 11 5 6 1018.9 1018.9 0.0
07/07:00am 19.5 15.2 -1.6 24 9.0 ESE 11 13 6 7 1018.6 1018.6 0.0
07/06:30am 16.2 12.4 -0.9 31 7.2 ESE 9 11 5 6 1018.4 1018.4 0.0
07/06:00am 15.4 11.5 -1.2 32 6.8 E 9 11 5 6 1018.1 1018.1 0.0
07/05:30am 16.0 12.0 -2.0 29 7.3 E 9 9 5 5 1017.7 1017.7 0.0
07/05:00am 15.1 11.6 -1.5 32 6.8 E 7 7 4 4 1017.5 1017.5 0.0
07/04:30am 15.9 12.6 -1.6 30 7.2 E 6 7 3 4 1017.2 1017.2 0.0
07/04:00am 17.6 14.1 -1.1 28 7.9 E 7 9 4 5 1017.0 1017.0 0.0
07/03:30am 16.4 13.0 -0.8 31 7.2 E 7 11 4 6 1017.1 1017.1 0.0
07/03:00am 17.4 13.7 -0.3 30 7.6 E 9 9 5 5 1017.1 1017.1 0.0
07/02:30am 17.4 13.0 0.1 31 7.5 ESE 13 15 7 8 1017.1 1017.1 0.0
07/02:00am 18.7 15.0 -0.2 28 8.2 SSE 9 13 5 7 1017.0 1017.0 0.0
07/01:30am 20.6 14.9 0.4 26 9.0 E 20 24 11 13 1016.8 1016.8 0.0
07/01:00am 19.8 14.4 1.3 29 8.4 E 19 20 10 11 1016.8 1016.8 0.0
07/12:30am 19.9 15.5 2.7 32 8.0 E 15 17 8 9 1017.0 1017.0 0.0
07/12:00am 19.8 15.4 2.6 32 8.0 E 15 17 8 9 1017.1 1017.1 0.0
 
Date/Time
WST
Temp
°C
App
Temp
°C
Dew
Point
°C
Rel
Hum
%
Delta-T
°C
Wind Press
QNH
hPa
Press
MSL
hPa
Rain since
9am
mm
Dir  Spd
km/h
Gust
km/h
Spd
kts
Gust
kts
06/11:30pm 19.7 15.7 3.0 33 7.8 E 13 15 7 8 1017.0 1017.0 0.0
06/11:00pm 20.2 16.6 3.0 32 8.1 E 11 13 6 7 1017.1 1017.1 0.0
06/10:30pm 20.0 16.4 2.8 32 8.0 E 11 13 6 7 1017.1 1017.1 0.0
06/10:00pm 19.8 16.2 3.1 33 7.8 E 11 11 6 6 1017.1 1017.1 0.0
06/09:30pm 18.3 14.5 1.8 33 7.4 E 11 11 6 6 1017.2 1017.2 0.0
06/09:00pm 20.6 17.1 3.3 32 8.2 ENE 11 11 6 6 1017.3 1017.3 0.0
06/08:30pm 20.4 17.2 3.2 32 8.1 E 9 9 5 5 1017.3 1017.3 0.0
06/08:00pm 20.6 17.0 2.9 31 8.3 E 11 11 6 6 1017.0 1017.0 0.0
06/07:30pm 21.5 17.9 2.7 29 8.9 E 11 13 6 7 1016.8 1016.8 0.0
06/07:00pm 21.8 18.1 2.5 28 9.1 ESE 11 13 6 7 1016.6 1016.6 0.0
06/06:30pm 22.4 19.1 2.5 27 9.4 ESE 9 11 5 6 1016.3 1016.3 0.0
06/06:00pm 23.2 19.6 2.7 26 9.8 ESE 11 13 6 7 1015.9 1015.9 0.0
06/05:30pm 24.1 19.6 2.3 24 10.4 ESE 15 17 8 9 1015.5 1015.5 0.0
06/05:00pm 27.1 22.4 2.9 21 11.9 E 17 20 9 11 1015.0 1015.0 0.0
06/04:30pm 28.4 23.0 2.6 19 12.7 E 20 28 11 15 1014.7 1014.7 0.0
06/04:00pm 28.9 23.6 3.0 19 12.9 ESE 20 28 11 15 1014.4 1014.4 0.0
06/03:30pm 29.2 23.1 2.5 18 13.2 ESE 24 30 13 16 1014.1 1014.1 0.0
06/03:00pm 29.6 23.5 2.8 18 13.4 ESE 24 37 13 20 1014.1 1014.1 0.0
06/02:30pm 29.7 23.6 2.9 18 13.4 E 24 39 13 21 1014.4 1014.4 0.0
06/02:00pm 29.9 24.7 3.8 19 13.3 ESE 20 32 11 17 1014.5 1014.5 0.0
06/01:30pm 29.5 23.5 3.5 19 13.1 ESE 24 32 13 17 1014.8 1014.8 0.0
06/01:00pm 29.5 23.5 3.5 19 13.1 ESE 24 30 13 16 1015.0 1015.0 0.0
06/12:30pm 29.5 23.4 2.7 18 13.4 E 24 33 13 18 1015.3 1015.3 0.0
06/12:00pm 28.3 21.8 2.5 19 12.7 ESE 26 37 14 20 1015.8 1015.8 0.0
06/11:30am 27.8 21.2 2.1 19 12.5 ESE 26 35 14 19 1016.5 1016.5 0.0
06/11:00am 27.0 19.9 1.4 19 12.2 ESE 28 39 15 21 1017.3 1017.3 0.0
06/10:30am 27.5 20.5 1.8 19 12.4 ESE 28 41 15 22 1017.7 1017.7 0.0
06/10:00am 26.3 19.2 1.6 20 11.8 ESE 28 41 15 22 1018.1 1018.1 0.0
06/09:30am 25.7 18.7 1.8 21 11.4 E 28 37 15 20 1018.4 1018.4 0.0
06/09:00am 25.3 17.9 2.1 22 11.1 ESE 30 41 16 22 1018.6 1018.6 0.0
06/08:30am 24.8 17.0 1.7 22 10.9 ESE 32 39 17 21 1018.7 1018.7 0.0
06/08:00am 23.6 15.7 1.3 23 10.4 ESE 32 35 17 19 1018.6 1018.6 0.0
06/07:30am 22.8 16.1 1.2 24 10.0 ESE 26 32 14 17 1018.6 1018.6 0.0
06/07:00am 21.3 15.7 1.0 26 9.2 E 20 24 11 13 1018.6 1018.6 0.0
06/06:30am 19.9 14.4 0.9 28 8.5 E 19 22 10 12 1018.3 1018.3 0.0
06/06:00am 18.8 13.3 0.4 29 8.1 E 19 20 10 11 1018.1 1018.1 0.0
06/05:30am 18.9 13.4 0.5 29 8.1 E 19 20 10 11 1017.8 1017.8 0.0
06/05:00am 18.8 13.2 -0.1 28 8.2 E 19 20 10 11 1017.5 1017.5 0.0
06/04:30am 18.5 12.7 0.2 29 8.0 E 20 24 11 13 1017.2 1017.2 0.0
06/04:00am 17.1 12.0 0.7 33 7.1 E 17 19 9 10 1017.0 1017.0 0.0
06/03:30am 16.3 12.0 -1.3 30 7.3 E 11 15 6 8 1017.1 1017.1 0.0
06/03:00am 17.8 14.1 0.0 30 7.7 E 9 11 5 6 1016.9 1016.9 0.0
06/02:30am 16.3 13.2 1.2 36 6.6 ESE 7 9 4 5 1016.9 1016.9 0.0
06/02:00am 16.4 13.2 0.9 35 6.7 ESE 7 9 4 5 1016.9 1016.9 0.0
06/01:30am 15.8 13.0 3.3 43 5.7 ESE 7 9 4 5 1016.9 1016.9 0.0
06/01:00am 14.9 11.4 1.4 40 5.9 E 9 9 5 5 1016.9 1016.9 0.0
06/12:30am 17.0 13.7 2.2 37 6.7 E 9 9 5 5 1017.1 1017.1 0.0
06/12:00am 18.2 14.6 2.9 36 7.0 ESE 11 11 6 6 1017.3 1017.3 0.0
 
Date/Time
WST
Temp
°C
App
Temp
°C
Dew
Point
°C
Rel
Hum
%
Delta-T
°C
Wind Press
QNH
hPa
Press
MSL
hPa
Rain since
9am
mm
Dir  Spd
km/h
Gust
km/h
Spd
kts
Gust
kts
05/11:30pm 18.1 14.9 2.8 36 7.0 SE 9 11 5 6 1017.3 1017.3 0.0

Other formats

Comma delimited format used in spreadsheet applications
http://www.bom.gov.au/fwo/IDW60801/IDW60801.95214.axf

JavaScript Object Notation format (JSON) in row-major order
http://www.bom.gov.au/fwo/IDW60801/IDW60801.95214.json

Data quality

Most of these data are generated automatically and are frequently updated. Quality checks on data are not normally performed. It is possible for incorrect values to appear. Refer to information at About Latest Weather Observations and please check the disclaimer before using these data.